Time;durP1;ratioP1;P1;durP2;ratioP2;P2;SDS_P1;SDS_P2;PMS_P1;PMS_P2;Temp;Humidity;BMP_temperature;BMP_pressure;BME280_temperature;BME280_humidity;BME280_pressure;Samples;Min_cycle;Max_cycle;Signal;HPM_P1;HPM_P2
2023/04/03 00:01:18;;;;;;;16.10;2.78;;;9.60;99.90;;;;;;5071220;28;20427;-76
2023/04/03 00:03:45;;;;;;;15.50;2.75;;;9.60;99.90;;;;;;5056906;28;20513;-76
2023/04/03 00:06:12;;;;;;;15.38;3.20;;;9.50;99.90;;;;;;5080157;28;20409;-76
2023/04/03 00:08:39;;;;;;;14.18;3.10;;;9.50;99.90;;;;;;5061151;28;20404;-76
2023/04/03 00:11:05;;;;;;;17.58;3.22;;;9.50;99.90;;;;;;5055171;28;20418;-75
2023/04/03 00:13:33;;;;;;;13.00;2.90;;;9.50;99.90;;;;;;5076452;28;20418;-76
2023/04/03 00:16:01;;;;;;;13.35;2.95;;;9.50;99.90;;;;;;5070281;28;20426;-76
2023/04/03 00:18:28;;;;;;;12.70;2.67;;;9.40;99.90;;;;;;5069363;28;20483;-76
2023/04/03 00:20:54;;;;;;;12.02;2.83;;;9.40;99.90;;;;;;5090331;28;20988;-76
2023/04/03 00:23:20;;;;;;;13.67;2.93;;;9.40;99.90;;;;;;5080105;28;20417;-76
2023/04/03 00:25:47;;;;;;;9.40;2.60;;;9.50;99.90;;;;;;5091908;27;20969;-76
2023/04/03 00:28:13;;;;;;;13.75;3.00;;;9.50;99.90;;;;;;5074972;28;20408;-76
2023/04/03 00:30:39;;;;;;;15.45;3.28;;;9.40;99.90;;;;;;5075048;28;20922;-75
2023/04/03 00:33:06;;;;;;;14.48;3.10;;;9.40;99.90;;;;;;5076732;28;20485;-76
2023/04/03 00:35:34;;;;;;;13.40;2.97;;;9.40;99.90;;;;;;5085681;28;20423;-76
2023/04/03 00:38:01;;;;;;;12.52;2.60;;;9.40;99.90;;;;;;5081621;28;20417;-76
2023/04/03 00:40:41;;;;;;;14.45;2.90;;;9.30;99.90;;;;;;5067214;28;20433;-76
2023/04/03 00:43:23;;;;;;;11.82;2.80;;;9.30;99.90;;;;;;5065300;28;20568;-76
2023/04/03 00:45:52;;;;;;;11.80;2.72;;;9.20;99.90;;;;;;5075262;28;20429;-76
2023/04/03 00:48:34;;;;;;;11.68;2.65;;;9.10;99.90;;;;;;5070051;28;21284;-76
2023/04/03 00:51:03;;;;;;;13.25;3.03;;;9.20;99.90;;;;;;5069424;28;20716;-76
2023/04/03 00:53:54;;;;;;;11.40;2.67;;;9.20;99.90;;;;;;5067335;28;20896;-76
2023/04/03 00:56:26;;;;;;;15.40;2.67;;;9.10;99.90;;;;;;5066746;28;20614;-76
2023/04/03 00:59:06;;;;;;;14.67;2.87;;;9.10;99.90;;;;;;5067406;28;20926;-76
2023/04/03 01:01:32;;;;;;;12.27;3.00;;;9.00;99.90;;;;;;5051240;28;21191;-76
2023/04/03 01:04:03;;;;;;;13.40;2.92;;;9.00;99.90;;;;;;5100037;28;20783;-76
2023/04/03 01:06:36;;;;;;;12.10;2.88;;;8.90;99.90;;;;;;5066604;28;20882;-76
2023/04/03 01:09:04;;;;;;;13.60;2.83;;;8.90;99.90;;;;;;5065787;28;20936;-76
2023/04/03 01:11:31;;;;;;;12.63;2.47;;;8.90;99.90;;;;;;5076870;28;20409;-76
2023/04/03 01:13:57;;;;;;;12.15;2.50;;;8.90;99.90;;;;;;5064961;28;20410;-76
2023/04/03 01:16:23;;;;;;;13.10;2.72;;;8.90;99.90;;;;;;5068408;28;20829;-76
2023/04/03 01:18:50;;;;;;;11.18;2.60;;;8.90;99.90;;;;;;5065419;28;20901;-75
2023/04/03 01:21:54;;;;;;;16.10;2.78;;;9.00;99.90;;;;;;5067483;28;20631;-76
2023/04/03 01:24:33;;;;;;;9.97;2.60;;;9.00;99.90;;;;;;5071673;28;20447;-76
2023/04/03 01:27:04;;;;;;;14.93;2.60;;;8.90;99.90;;;;;;5073266;28;20480;-76
2023/04/03 01:29:30;;;;;;;14.60;2.85;;;8.90;99.90;;;;;;5070364;28;20415;-76
2023/04/03 01:31:59;;;;;;;13.25;2.45;;;8.90;99.90;;;;;;5071385;28;20418;-75
2023/04/03 01:34:28;;;;;;;13.87;2.83;;;8.90;99.90;;;;;;5089368;27;20934;-76
2023/04/03 01:36:55;;;;;;;10.32;2.67;;;8.90;99.90;;;;;;5070023;28;20419;-76
2023/04/03 01:39:22;;;;;;;13.87;2.57;;;8.90;99.90;;;;;;5103412;27;20439;-76
2023/04/03 01:41:49;;;;;;;13.97;2.80;;;8.80;99.90;;;;;;5101523;27;20493;-76
2023/04/03 01:44:19;;;;;;;13.75;2.90;;;8.80;99.90;;;;;;5104245;27;20467;-76
2023/04/03 01:46:46;;;;;;;13.05;2.60;;;8.80;99.90;;;;;;5076261;28;20425;-76
2023/04/03 01:49:12;;;;;;;16.05;2.95;;;8.80;99.90;;;;;;5076006;28;20497;-75
2023/04/03 01:51:38;;;;;;;14.43;2.67;;;8.80;99.90;;;;;;5073358;28;20418;-76
2023/04/03 01:54:05;;;;;;;13.95;2.80;;;8.80;99.90;;;;;;5077209;28;20422;-76
2023/04/03 01:56:31;;;;;;;13.05;2.97;;;8.80;99.90;;;;;;5074686;28;20425;-75
2023/04/03 01:58:57;;;;;;;13.63;3.10;;;8.80;99.90;;;;;;5070840;28;21039;-74
2023/04/03 02:01:23;;;;;;;16.60;2.90;;;8.80;99.90;;;;;;5069979;28;20411;-74
2023/04/03 02:03:50;;;;;;;12.95;3.20;;;8.80;99.90;;;;;;5069096;28;20414;-74
2023/04/03 02:06:17;;;;;;;12.63;2.83;;;8.90;99.90;;;;;;5065769;28;20534;-75
2023/04/03 02:08:43;;;;;;;13.48;2.95;;;8.90;99.90;;;;;;5073998;28;20404;-74
2023/04/03 02:11:10;;;;;;;14.57;2.70;;;8.90;99.90;;;;;;5075489;28;20457;-74
2023/04/03 02:13:36;;;;;;;14.05;3.38;;;9.00;99.90;;;;;;5073015;28;20525;-75
2023/04/03 02:16:11;;;;;;;13.82;2.53;;;9.00;99.90;;;;;;5062406;28;20403;-75
2023/04/03 02:18:37;;;;;;;15.10;2.83;;;9.00;99.90;;;;;;5079918;28;20426;-74
2023/04/03 02:21:04;;;;;;;12.82;3.00;;;9.00;99.90;;;;;;5100397;27;20445;-74
2023/04/03 02:23:30;;;;;;;13.30;3.17;;;9.10;99.90;;;;;;5047003;28;21139;-74
2023/04/03 02:26:10;;;;;;;16.90;2.97;;;9.10;99.90;;;;;;5074777;28;20713;-74
2023/04/03 02:28:37;;;;;;;13.85;2.90;;;9.00;99.90;;;;;;5076808;28;22973;-74
2023/04/03 02:31:06;;;;;;;15.80;3.03;;;9.00;99.90;;;;;;5078270;28;20419;-75
2023/04/03 02:33:33;;;;;;;9.27;2.60;;;9.00;99.90;;;;;;5046122;28;20495;-74
2023/04/03 02:35:59;;;;;;;12.90;2.95;;;9.00;99.90;;;;;;5069351;28;20414;-74
2023/04/03 02:38:26;;;;;;;9.73;2.50;;;8.90;99.90;;;;;;5071624;28;20419;-74
2023/04/03 02:40:52;;;;;;;15.52;3.08;;;8.70;99.90;;;;;;5077151;28;20500;-74
2023/04/03 02:43:18;;;;;;;15.32;2.90;;;8.60;99.90;;;;;;5064813;28;20407;-74
2023/04/03 02:45:45;;;;;;;11.68;2.83;;;8.50;99.90;;;;;;5085055;27;20445;-75
2023/04/03 02:48:11;;;;;;;12.70;2.60;;;8.50;99.90;;;;;;5089017;27;20769;-74
2023/04/03 02:50:37;;;;;;;15.33;2.83;;;8.50;99.90;;;;;;5068285;28;20534;-75
2023/04/03 02:53:04;;;;;;;15.55;2.58;;;8.50;99.90;;;;;;5069917;28;20952;-74
2023/04/03 02:55:30;;;;;;;15.93;3.30;;;8.50;99.90;;;;;;5069630;28;20411;-74
2023/04/03 02:58:00;;;;;;;13.52;2.80;;;8.40;99.90;;;;;;5065908;28;21012;-74
2023/04/03 03:00:26;;;;;;;11.00;2.60;;;8.50;99.90;;;;;;5071721;28;20503;-74
2023/04/03 03:02:53;;;;;;;12.73;2.72;;;8.50;99.90;;;;;;5076595;28;20417;-74
2023/04/03 03:05:19;;;;;;;13.88;2.65;;;8.50;99.90;;;;;;5074276;28;20427;-74
2023/04/03 03:07:45;;;;;;;15.00;3.17;;;8.60;99.90;;;;;;5066742;28;20410;-74
2023/04/03 03:10:12;;;;;;;11.10;2.87;;;8.60;99.90;;;;;;5067594;28;20415;-75
2023/04/03 03:12:38;;;;;;;8.48;2.53;;;8.50;99.90;;;;;;5075462;28;20411;-74
2023/04/03 03:15:06;;;;;;;14.15;2.95;;;8.60;99.90;;;;;;5069670;28;20504;-74
2023/04/03 03:17:32;;;;;;;14.13;2.72;;;8.50;99.90;;;;;;5065474;28;20443;-74
2023/04/03 03:19:58;;;;;;;11.65;2.63;;;8.50;99.90;;;;;;5075069;28;20494;-74
2023/04/03 03:22:26;;;;;;;10.20;2.60;;;8.40;99.90;;;;;;5082576;28;20528;-74
2023/04/03 03:24:52;;;;;;;15.75;3.08;;;8.40;99.90;;;;;;5071399;28;20425;-74
2023/04/03 03:27:19;;;;;;;13.20;2.60;;;8.40;99.90;;;;;;5068286;28;20411;-74
2023/04/03 03:29:45;;;;;;;11.15;2.50;;;8.40;99.90;;;;;;5068754;28;20500;-74
2023/04/03 03:32:11;;;;;;;14.07;3.03;;;8.40;99.90;;;;;;5071493;28;20438;-74
2023/04/03 03:34:37;;;;;;;15.45;2.95;;;8.40;99.90;;;;;;5075252;28;20423;-74
2023/04/03 03:37:04;;;;;;;16.23;3.00;;;8.30;99.90;;;;;;5072162;28;20801;-74
2023/04/03 03:39:30;;;;;;;14.65;2.58;;;8.30;99.90;;;;;;5073033;28;20409;-74
2023/04/03 03:41:56;;;;;;;15.57;3.20;;;8.30;99.90;;;;;;5065658;28;20432;-74
2023/04/03 03:44:23;;;;;;;14.82;2.75;;;8.40;99.90;;;;;;5072303;28;20916;-74
2023/04/03 03:46:49;;;;;;;11.73;2.67;;;8.60;99.90;;;;;;5073154;28;20451;-74
2023/04/03 03:49:15;;;;;;;14.33;2.90;;;8.70;99.90;;;;;;5082976;28;20459;-74
2023/04/03 03:51:41;;;;;;;12.15;2.55;;;8.80;99.90;;;;;;5051974;28;20420;-74
2023/04/03 03:54:09;;;;;;;9.43;2.58;;;9.00;99.90;;;;;;5073104;28;20415;-74
2023/04/03 03:56:35;;;;;;;14.63;2.90;;;9.10;99.90;;;;;;5070101;28;20510;-74
2023/04/03 03:59:02;;;;;;;12.90;2.60;;;9.10;99.90;;;;;;5073518;28;20420;-74
2023/04/03 04:01:28;;;;;;;18.45;3.05;;;9.10;99.90;;;;;;5077625;28;20411;-75
2023/04/03 04:03:55;;;;;;;15.32;3.00;;;9.10;99.90;;;;;;5058326;28;20412;-74
2023/04/03 04:06:21;;;;;;;13.68;2.83;;;9.20;99.90;;;;;;5079708;28;20415;-74
2023/04/03 04:08:48;;;;;;;13.00;3.00;;;9.30;99.90;;;;;;5069338;28;20441;-74
2023/04/03 04:11:16;;;;;;;16.30;2.70;;;9.40;99.90;;;;;;5083033;28;20413;-74
2023/04/03 04:13:43;;;;;;;13.00;2.53;;;9.40;99.90;;;;;;5066561;28;20500;-75
2023/04/03 04:16:09;;;;;;;12.50;2.65;;;9.60;99.90;;;;;;5068307;28;21001;-75
2023/04/03 04:18:35;;;;;;;13.00;2.67;;;9.70;99.90;;;;;;5050901;28;20425;-74
2023/04/03 04:21:02;;;;;;;14.55;2.67;;;9.70;99.90;;;;;;5068975;28;20983;-74
2023/04/03 04:23:28;;;;;;;12.70;2.63;;;9.70;99.90;;;;;;5066497;28;20417;-75
2023/04/03 04:25:54;;;;;;;15.52;2.75;;;9.70;99.90;;;;;;5071352;28;20444;-74
2023/04/03 04:28:21;;;;;;;11.77;2.50;;;9.70;99.90;;;;;;5045139;28;20404;-74
2023/04/03 05:00:15;;;;;;;11.52;2.58;;;10.00;99.90;;;;;;5073185;28;20407;-74
2023/04/03 05:02:41;;;;;;;13.38;2.53;;;10.10;99.90;;;;;;5075107;28;20893;-75
2023/04/03 05:05:08;;;;;;;12.73;2.88;;;10.20;99.90;;;;;;5102120;27;20515;-75
2023/04/03 05:07:35;;;;;;;12.48;2.45;;;10.40;99.90;;;;;;5068272;28;20525;-74
2023/04/03 05:10:03;;;;;;;12.05;2.60;;;10.50;99.90;;;;;;5077501;28;20421;-74
2023/04/03 05:12:29;;;;;;;11.70;2.38;;;10.60;99.90;;;;;;5075674;28;20416;-75
2023/04/03 05:14:55;;;;;;;11.68;2.40;;;10.70;99.90;;;;;;5072336;28;21262;-75
2023/04/03 05:17:22;;;;;;;10.95;2.72;;;10.80;99.90;;;;;;5076195;28;21191;-75
2023/04/03 05:19:48;;;;;;;15.68;2.97;;;10.90;99.90;;;;;;5070486;28;20506;-74
2023/04/03 05:22:14;;;;;;;12.23;3.00;;;11.00;99.90;;;;;;5105437;27;20425;-75
2023/04/03 05:24:41;;;;;;;12.45;2.90;;;11.00;99.90;;;;;;5076392;28;20424;-75
2023/04/03 05:27:07;;;;;;;11.57;2.60;;;11.10;99.90;;;;;;5075239;28;20847;-75
2023/04/03 05:29:33;;;;;;;13.60;3.25;;;11.20;99.90;;;;;;5068252;28;20419;-74
2023/04/03 05:31:59;;;;;;;12.23;2.53;;;11.30;99.90;;;;;;5076012;28;20864;-74
2023/04/03 05:34:26;;;;;;;10.20;3.28;;;11.40;99.90;;;;;;5070237;28;20975;-74
2023/04/03 05:36:52;;;;;;;14.73;3.85;;;11.50;99.90;;;;;;5064133;28;20414;-74
2023/04/03 05:39:19;;;;;;;17.33;4.20;;;11.50;99.90;;;;;;5096977;27;21086;-74
2023/04/03 05:41:45;;;;;;;16.17;4.00;;;11.60;99.90;;;;;;5080710;28;20445;-74
2023/04/03 05:44:11;;;;;;;13.40;3.45;;;11.60;99.90;;;;;;5076846;28;20461;-74
2023/04/03 05:46:37;;;;;;;11.40;3.00;;;11.60;99.90;;;;;;5074017;28;20969;-74
2023/04/03 05:49:04;;;;;;;11.03;3.20;;;11.60;99.90;;;;;;5069038;28;21052;-74
2023/04/03 05:51:35;;;;;;;9.27;2.80;;;11.80;99.90;;;;;;5066849;28;21496;-74
2023/04/03 05:54:28;;;;;;;10.55;2.72;;;11.80;99.90;;;;;;5072066;28;21319;-74
2023/04/03 05:56:54;;;;;;;13.18;2.75;;;11.90;99.90;;;;;;5076547;28;20424;-74
2023/04/03 05:59:21;;;;;;;12.48;2.65;;;12.00;99.90;;;;;;5079322;28;20415;-74
2023/04/03 06:01:48;;;;;;;13.25;3.50;;;12.10;99.90;;;;;;5075511;28;20973;-74
2023/04/03 06:04:14;;;;;;;9.40;2.95;;;12.10;99.90;;;;;;5070402;28;20408;-74
2023/04/03 06:06:56;;;;;;;17.50;3.20;;;12.30;99.90;;;;;;5072216;28;20922;-74
2023/04/03 06:09:26;;;;;;;11.95;3.22;;;12.30;99.90;;;;;;5107696;27;20411;-74
2023/04/03 06:11:53;;;;;;;13.48;2.90;;;12.40;99.90;;;;;;5071918;28;20413;-74
2023/04/03 06:14:19;;;;;;;12.65;2.90;;;12.40;99.90;;;;;;5057041;28;20409;-74
2023/04/03 06:16:46;;;;;;;11.98;2.67;;;12.50;99.90;;;;;;5090438;27;20512;-74
2023/04/03 06:19:12;;;;;;;11.77;2.67;;;12.60;99.90;;;;;;5101744;27;20416;-74
2023/04/03 06:21:39;;;;;;;11.48;2.70;;;12.80;99.90;;;;;;5073505;28;20478;-74
2023/04/03 06:24:07;;;;;;;15.57;3.13;;;12.90;99.90;;;;;;5074589;28;20427;-74
2023/04/03 06:26:34;;;;;;;11.48;2.80;;;12.90;99.90;;;;;;5072755;28;21018;-74
2023/04/03 06:29:01;;;;;;;15.50;3.30;;;13.00;99.90;;;;;;5081617;28;20465;-74
2023/04/03 06:31:28;;;;;;;11.85;2.58;;;13.10;99.90;;;;;;5101128;27;20423;-74
2023/04/03 06:33:55;;;;;;;14.55;3.08;;;13.30;99.90;;;;;;5073344;28;20468;-74
2023/04/03 06:36:24;;;;;;;12.10;2.80;;;13.40;99.90;;;;;;5066176;28;20502;-74
2023/04/03 06:38:50;;;;;;;15.00;3.10;;;13.60;99.90;;;;;;5070743;28;20456;-74
2023/04/03 06:41:20;;;;;;;14.10;3.15;;;13.60;99.90;;;;;;5077358;28;20419;-75
2023/04/03 06:43:46;;;;;;;11.85;2.75;;;13.60;99.90;;;;;;5072275;28;21195;-75
2023/04/03 06:46:21;;;;;;;15.07;2.97;;;13.60;99.90;;;;;;5073622;28;20413;-75
2023/04/03 06:48:49;;;;;;;13.15;2.72;;;13.70;99.90;;;;;;5089620;28;20406;-75
2023/04/03 06:51:26;;;;;;;17.02;2.63;;;13.80;99.90;;;;;;5077928;28;20400;-75
2023/04/03 06:53:55;;;;;;;13.60;2.65;;;14.00;99.90;;;;;;5076029;28;20416;-75
2023/04/03 06:56:22;;;;;;;14.57;2.77;;;14.20;99.90;;;;;;5074979;28;20449;-75
2023/04/03 06:58:50;;;;;;;14.17;2.50;;;14.60;99.90;;;;;;5076420;28;20433;-75
2023/04/03 07:01:21;;;;;;;15.00;2.53;;;14.60;99.90;;;;;;5090866;28;20171;-75
2023/04/03 07:03:49;;;;;;;16.07;2.77;;;14.60;99.90;;;;;;5078711;28;20186;-75
2023/04/03 07:06:18;;;;;;;11.07;2.75;;;14.80;99.90;;;;;;5072711;28;20467;-75
2023/04/03 07:08:46;;;;;;;15.25;2.83;;;14.70;99.90;;;;;;5082218;28;20406;-75
2023/04/03 07:11:16;;;;;;;16.60;2.70;;;14.50;99.90;;;;;;5063778;28;20491;-75
2023/04/03 07:13:43;;;;;;;10.90;2.83;;;14.50;99.90;;;;;;5090833;28;20466;-74
2023/04/03 07:16:10;;;;;;;11.25;2.60;;;14.40;99.90;;;;;;5056066;28;21183;-75
2023/04/03 07:18:37;;;;;;;10.73;2.40;;;14.50;99.90;;;;;;5075493;28;20523;-75
2023/04/03 07:21:04;;;;;;;12.03;2.53;;;14.60;99.90;;;;;;5080652;28;20412;-75
2023/04/03 07:23:30;;;;;;;14.75;2.72;;;14.60;99.90;;;;;;5074748;28;20942;-74
2023/04/03 07:25:57;;;;;;;15.13;3.05;;;14.50;99.90;;;;;;5075899;28;20414;-74
2023/04/03 07:28:24;;;;;;;13.60;3.10;;;14.30;99.90;;;;;;5076873;28;20461;-75
2023/04/03 07:31:02;;;;;;;14.60;3.13;;;14.30;99.90;;;;;;5079826;28;20414;-75
2023/04/03 07:33:31;;;;;;;14.15;2.90;;;14.40;99.90;;;;;;5080464;28;20408;-75
2023/04/03 07:35:58;;;;;;;11.93;2.70;;;14.50;99.90;;;;;;5080940;28;20417;-75
2023/04/03 07:38:24;;;;;;;12.93;2.67;;;14.70;99.90;;;;;;5085744;28;20428;-75
2023/04/03 07:40:52;;;;;;;16.02;3.90;;;14.80;99.90;;;;;;5082188;28;20421;-75
2023/04/03 07:43:21;;;;;;;13.95;3.30;;;15.30;99.90;;;;;;5077269;28;21083;-74
2023/04/03 07:45:51;;;;;;;15.68;4.90;;;15.50;99.90;;;;;;5083877;28;20468;-75
2023/04/03 07:48:26;;;;;;;19.27;6.10;;;15.70;99.90;;;;;;5065502;28;20410;-75
2023/04/03 07:50:53;;;;;;;13.45;3.65;;;15.70;99.90;;;;;;5077426;28;20441;-75
2023/04/03 07:53:19;;;;;;;15.70;4.80;;;16.10;99.90;;;;;;5078038;28;20428;-75
2023/04/03 07:55:51;;;;;;;11.43;3.83;;;16.20;99.90;;;;;;5077308;28;20405;-75
2023/04/03 07:58:19;;;;;;;17.80;5.35;;;16.30;99.90;;;;;;5082333;28;20413;-75
2023/04/03 08:00:46;;;;;;;18.80;4.75;;;16.40;99.90;;;;;;5110923;27;20985;-75
2023/04/03 08:03:16;;;;;;;16.65;5.15;;;16.50;99.90;;;;;;5073670;28;20408;-75
2023/04/03 08:05:45;;;;;;;17.13;4.65;;;16.60;99.90;;;;;;5076189;28;20489;-75
2023/04/03 08:08:15;;;;;;;15.43;4.22;;;16.60;99.90;;;;;;5076061;28;20574;-73
2023/04/03 08:10:43;;;;;;;18.25;4.00;;;16.60;99.90;;;;;;5078728;28;20410;-75
2023/04/03 08:13:10;;;;;;;14.75;3.65;;;16.60;99.90;;;;;;5071197;28;20439;-75
2023/04/03 08:15:39;;;;;;;14.38;3.05;;;16.60;99.90;;;;;;5060606;28;20493;-75
2023/04/03 08:18:06;;;;;;;17.08;3.58;;;16.70;99.90;;;;;;5069245;28;20978;-75
2023/04/03 08:20:32;;;;;;;19.73;3.97;;;16.60;99.90;;;;;;5081811;28;20504;-75
2023/04/03 08:22:59;;;;;;;14.48;3.53;;;16.70;99.90;;;;;;5079356;28;20412;-75
2023/04/03 08:25:25;;;;;;;19.67;3.47;;;16.90;99.90;;;;;;5077734;28;20425;-75
2023/04/03 08:27:52;;;;;;;13.77;3.15;;;17.00;99.90;;;;;;5070352;28;21245;-75
2023/04/03 08:30:19;;;;;;;15.35;3.53;;;17.10;99.90;;;;;;5074783;28;20413;-75
2023/04/03 08:32:48;;;;;;;18.17;3.08;;;17.20;99.90;;;;;;5058325;28;20440;-75
2023/04/03 08:35:14;;;;;;;16.10;3.55;;;17.10;99.90;;;;;;5052975;28;21082;-75
2023/04/03 08:37:40;;;;;;;14.55;3.42;;;17.30;99.90;;;;;;5076276;28;20820;-75
2023/04/03 08:40:15;;;;;;;15.75;3.60;;;17.40;99.90;;;;;;5072372;28;20477;-75
2023/04/03 08:42:48;;;;;;;19.77;3.50;;;17.40;99.90;;;;;;5073798;28;20423;-72
2023/04/03 08:45:44;;;;;;;13.82;3.00;;;17.40;99.90;;;;;;5076740;28;20484;-75
2023/04/03 08:48:21;;;;;;;12.75;3.25;;;17.50;99.90;;;;;;5075627;28;20406;-75
2023/04/03 08:50:54;;;;;;;12.52;3.03;;;17.60;99.90;;;;;;5075382;28;20414;-75
2023/04/03 08:53:48;;;;;;;16.27;3.40;;;17.70;99.90;;;;;;5078502;28;20403;-75
2023/04/03 08:56:17;;;;;;;12.23;2.80;;;17.80;99.90;;;;;;5073948;28;20485;-75
2023/04/03 08:58:58;;;;;;;13.23;2.75;;;17.90;99.90;;;;;;5071546;28;20917;-75
2023/04/03 09:01:30;;;;;;;9.57;2.58;;;17.80;99.90;;;;;;5088353;28;20411;-75
2023/04/03 09:03:57;;;;;;;16.70;3.13;;;17.90;99.90;;;;;;5071332;28;20510;-75
2023/04/03 09:06:32;;;;;;;14.37;3.00;;;18.10;99.90;;;;;;5073446;28;20409;-75
2023/04/03 09:09:38;;;;;;;13.27;2.92;;;18.20;99.90;;;;;;5057963;28;20422;-72
2023/04/03 09:12:27;;;;;;;13.90;3.23;;;18.20;99.90;;;;;;5069264;28;20450;-75
2023/04/03 09:15:21;;;;;;;12.20;3.30;;;18.30;99.90;;;;;;5080031;28;20410;-75
2023/04/03 09:18:05;;;;;;;11.82;2.92;;;18.40;99.90;;;;;;5063476;28;20632;-75
2023/04/03 09:20:47;;;;;;;9.18;2.88;;;18.40;99.90;;;;;;5079504;28;20525;-75
2023/04/03 09:23:35;;;;;;;14.70;3.20;;;18.60;99.90;;;;;;5069784;28;20451;-75
2023/04/03 09:26:11;;;;;;;13.10;3.08;;;18.70;99.90;;;;;;5071660;28;20470;-75
2023/04/03 09:28:42;;;;;;;12.68;2.95;;;18.80;99.90;;;;;;5072861;28;20394;-74
2023/04/03 09:31:38;;;;;;;16.83;2.97;;;18.80;99.90;;;;;;5076499;28;20405;-75
2023/04/03 09:34:15;;;;;;;11.68;2.70;;;18.80;99.90;;;;;;5075193;28;20417;-75
2023/04/03 09:36:58;;;;;;;12.70;2.80;;;19.00;99.90;;;;;;5074513;28;20412;-75
2023/04/03 09:39:29;;;;;;;15.18;2.90;;;19.10;99.90;;;;;;5075516;28;20418;-75
2023/04/03 09:42:04;;;;;;;11.88;3.30;;;19.20;99.90;;;;;;5083467;28;20413;-75
2023/04/03 09:44:38;;;;;;;12.57;2.85;;;19.40;99.90;;;;;;5082916;28;20423;-75
2023/04/03 09:47:22;;;;;;;12.98;2.95;;;19.60;99.90;;;;;;5077158;28;20415;-75
2023/04/03 09:49:49;;;;;;;12.57;2.78;;;19.90;99.90;;;;;;5078335;28;20397;-75
2023/04/03 09:52:26;;;;;;;14.68;3.20;;;20.00;99.90;;;;;;5080741;28;20437;-75
2023/04/03 09:54:52;;;;;;;13.13;3.10;;;20.30;99.90;;;;;;5073391;28;21103;-75
2023/04/03 09:57:19;;;;;;;11.85;2.83;;;20.40;99.90;;;;;;5074940;28;20411;-75
2023/04/03 09:59:59;;;;;;;14.05;3.10;;;20.40;99.90;;;;;;5091680;28;20411;-73
2023/04/03 10:02:38;;;;;;;14.52;2.80;;;20.40;99.90;;;;;;5074496;28;21180;-75
2023/04/03 10:05:39;;;;;;;9.87;2.80;;;20.50;99.90;;;;;;5077987;28;21030;-75
2023/04/03 10:08:12;;;;;;;10.35;2.97;;;20.70;99.90;;;;;;5074479;28;20477;-76
2023/04/03 10:10:44;;;;;;;14.27;2.90;;;21.00;99.90;;;;;;5068581;28;20527;-75
2023/04/03 10:13:23;;;;;;;15.02;3.42;;;21.20;99.90;;;;;;5075569;28;20510;-73
2023/04/03 10:15:54;;;;;;;14.10;3.38;;;22.00;99.90;;;;;;5107460;27;20410;-73
2023/04/03 10:19:26;;;;;;;20.10;3.42;;;22.10;99.90;;;;;;5077007;28;20875;-72
2023/04/03 10:22:15;;;;;;;13.73;3.43;;;21.60;99.90;;;;;;5077386;28;20886;-72
2023/04/03 10:25:38;;;;;;;13.18;3.33;;;21.40;99.90;;;;;;5079879;28;20763;-72
2023/04/03 10:28:27;;;;;;;11.38;3.10;;;21.30;99.90;;;;;;5067895;28;20950;-72
2023/04/03 10:31:28;;;;;;;15.75;3.22;;;21.40;99.90;;;;;;5080382;28;20398;-72
2023/04/03 10:34:28;;;;;;;17.13;3.30;;;21.10;99.90;;;;;;5075484;28;21121;-72
2023/04/03 10:37:20;;;;;;;13.17;3.10;;;20.80;99.90;;;;;;5078035;28;20452;-73
2023/04/03 10:39:58;;;;;;;11.68;3.20;;;20.70;99.90;;;;;;5085853;28;20897;-72
2023/04/03 10:42:44;;;;;;;12.55;3.30;;;20.60;99.90;;;;;;5106120;27;20943;-72
2023/04/03 10:45:31;;;;;;;15.57;3.13;;;20.50;99.90;;;;;;5081819;28;20427;-73
2023/04/03 10:47:57;;;;;;;12.50;3.20;;;20.50;99.90;;;;;;5058644;28;20404;-73
2023/04/03 10:50:36;;;;;;;12.85;3.15;;;20.40;99.90;;;;;;5073956;28;20413;-74
2023/04/03 10:53:40;;;;;;;11.48;3.20;;;20.40;99.90;;;;;;5076407;28;20410;-72
2023/04/03 10:56:25;;;;;;;13.15;3.13;;;20.30;99.90;;;;;;5044479;28;21130;-75
2023/04/03 10:59:17;;;;;;;11.75;3.00;;;20.40;99.90;;;;;;5077781;28;20483;-74
2023/04/03 11:01:52;;;;;;;7.57;2.70;;;20.40;99.90;;;;;;5083076;28;20418;-74
2023/04/03 11:04:22;;;;;;;8.05;2.72;;;20.40;99.90;;;;;;5075312;28;20444;-74
2023/04/03 11:07:00;;;;;;;12.43;2.80;;;20.30;99.90;;;;;;5081159;28;20495;-75
2023/04/03 11:09:39;;;;;;;13.40;3.10;;;20.30;99.90;;;;;;5095749;28;20403;-74
2023/04/03 11:12:17;;;;;;;13.07;3.50;;;20.20;99.90;;;;;;5113730;27;20895;-75
2023/04/03 11:14:46;;;;;;;11.43;3.27;;;20.20;99.90;;;;;;5084876;28;20425;-75
2023/04/03 11:17:22;;;;;;;13.57;3.10;;;20.20;99.90;;;;;;5078437;28;20412;-75
2023/04/03 11:20:30;;;;;;;11.55;3.10;;;20.10;99.90;;;;;;5062515;28;20483;-75
2023/04/03 11:23:17;;;;;;;10.70;3.03;;;20.10;99.90;;;;;;5096050;28;22016;-74
2023/04/03 11:25:49;;;;;;;12.47;3.10;;;20.20;99.90;;;;;;5081163;28;20423;-75
2023/04/03 11:28:16;;;;;;;13.40;3.47;;;20.20;99.90;;;;;;5077034;28;20510;-75
2023/04/03 11:31:26;;;;;;;14.57;3.13;;;20.20;99.90;;;;;;5079840;28;20447;-75
2023/04/03 11:34:34;;;;;;;14.82;3.20;;;20.10;99.90;;;;;;5086416;28;20902;-75
2023/04/03 11:37:04;;;;;;;11.68;3.10;;;20.20;99.90;;;;;;5091968;28;20413;-75
2023/04/03 11:39:38;;;;;;;12.13;3.10;;;20.30;99.90;;;;;;5077203;28;20496;-75
2023/04/03 11:42:38;;;;;;;13.45;3.20;;;20.20;99.90;;;;;;5074433;28;20412;-75
2023/04/03 11:46:04;;;;;;;14.43;3.40;;;20.20;99.90;;;;;;5065265;28;20496;-74
2023/04/03 11:48:31;;;;;;;14.30;2.97;;;20.30;99.90;;;;;;5066228;28;20422;-75
2023/04/03 11:51:16;;;;;;;14.98;3.58;;;20.20;99.90;;;;;;5054896;28;20416;-75
2023/04/03 11:53:43;;;;;;;15.93;3.20;;;20.00;99.90;;;;;;5095300;28;20796;-74
2023/04/03 11:56:25;;;;;;;13.25;3.17;;;20.10;99.90;;;;;;5072021;28;20415;-75
2023/04/03 11:59:10;;;;;;;14.25;3.60;;;20.00;99.90;;;;;;5078802;28;20493;-75
2023/04/03 12:02:00;;;;;;;11.43;2.70;;;20.00;99.90;;;;;;5083296;28;20413;-75
2023/04/03 12:04:28;;;;;;;11.05;2.90;;;19.90;99.90;;;;;;5076887;28;20422;-75
2023/04/03 12:07:18;;;;;;;10.88;2.70;;;19.80;99.90;;;;;;5070620;28;20465;-75
2023/04/03 12:09:44;;;;;;;13.13;3.15;;;19.90;99.90;;;;;;5085499;28;20498;-75
2023/04/03 12:12:36;;;;;;;16.87;3.40;;;20.00;99.90;;;;;;5107274;27;20417;-75
2023/04/03 12:15:42;;;;;;;14.70;3.20;;;20.00;99.90;;;;;;5073816;28;20490;-75
2023/04/03 12:18:43;;;;;;;13.93;2.97;;;19.90;99.90;;;;;;5083700;28;20421;-75
2023/04/03 12:21:18;;;;;;;14.40;3.20;;;19.90;99.90;;;;;;5072746;28;20438;-75
2023/04/03 12:24:09;;;;;;;15.23;3.15;;;20.00;99.90;;;;;;5108672;27;20460;-75
2023/04/03 12:26:57;;;;;;;11.45;2.85;;;20.00;99.90;;;;;;5079535;28;20421;-75
2023/04/03 12:29:34;;;;;;;13.73;3.00;;;20.00;99.90;;;;;;5079808;28;20420;-75
2023/04/03 12:32:26;;;;;;;13.93;2.97;;;19.90;99.90;;;;;;5076614;28;20522;-75
2023/04/03 12:35:34;;;;;;;14.63;3.07;;;19.90;99.90;;;;;;5081269;28;20988;-75
2023/04/03 12:38:50;;;;;;;14.13;3.00;;;19.90;99.90;;;;;;5091174;28;20421;-75
2023/04/03 12:41:42;;;;;;;16.67;3.45;;;19.90;99.90;;;;;;5078454;28;20510;-74
2023/04/03 12:44:26;;;;;;;13.32;3.20;;;20.00;99.90;;;;;;5075477;28;20410;-75
2023/04/03 12:46:53;;;;;;;15.63;3.27;;;20.10;99.90;;;;;;5071757;28;20430;-74
2023/04/03 12:49:44;;;;;;;13.07;3.17;;;20.10;99.90;;;;;;5103197;28;20525;-75
2023/04/03 12:52:42;;;;;;;14.32;3.53;;;20.00;99.90;;;;;;5103515;28;20413;-75
2023/04/03 12:55:20;;;;;;;16.37;3.10;;;20.10;99.90;;;;;;5042471;28;20410;-74
2023/04/03 12:57:47;;;;;;;14.60;3.30;;;20.00;99.90;;;;;;5075143;28;21199;-74
2023/04/03 13:00:38;;;;;;;19.20;3.40;;;20.00;99.90;;;;;;5060819;28;20397;-75
2023/04/03 13:03:19;;;;;;;16.58;3.53;;;19.90;99.90;;;;;;5074982;28;20502;-74
2023/04/03 13:05:46;;;;;;;15.20;3.03;;;19.90;99.90;;;;;;5083305;28;20516;-75
2023/04/03 13:08:16;;;;;;;16.27;3.35;;;20.00;99.90;;;;;;5084716;28;20419;-74
2023/04/03 13:10:56;;;;;;;11.45;2.90;;;20.00;99.90;;;;;;5076160;28;20532;-75
2023/04/03 13:13:23;;;;;;;16.80;3.42;;;19.90;99.90;;;;;;5073366;28;20400;-75
2023/04/03 13:15:51;;;;;;;17.02;3.40;;;19.90;99.90;;;;;;5071383;28;20411;-75
2023/04/03 13:18:34;;;;;;;14.50;3.05;;;19.90;99.90;;;;;;5078375;28;20890;-75
2023/04/03 13:21:15;;;;;;;11.35;2.90;;;19.90;99.90;;;;;;5075259;28;20403;-75
2023/04/03 13:23:48;;;;;;;12.20;2.93;;;19.90;99.90;;;;;;5080658;28;20786;-74
2023/04/03 13:26:18;;;;;;;15.75;3.05;;;19.80;99.90;;;;;;5077544;28;20906;-74
2023/04/03 13:28:46;;;;;;;9.82;2.60;;;19.80;99.90;;;;;;5083829;28;20958;-74
2023/04/03 13:31:13;;;;;;;12.37;3.20;;;19.80;99.90;;;;;;5106983;27;20937;-75
2023/04/03 13:34:07;;;;;;;13.48;3.00;;;19.80;99.90;;;;;;5075923;28;21103;-75
2023/04/03 13:36:51;;;;;;;13.32;2.92;;;19.80;99.90;;;;;;5079757;28;20459;-74
2023/04/03 13:39:17;;;;;;;14.32;3.15;;;19.60;99.90;;;;;;5081915;28;20783;-75
2023/04/03 13:41:47;;;;;;;12.25;3.00;;;19.60;99.90;;;;;;5070480;28;20410;-74